Opal Express — V7KB8 — position and weather

sailwx.info

Track history (hours):
 
Tides and Currents Weather Stations Pressure Air Temp Water Temp Dewpoint Dewpoint Depression Visibility Wind Speed Wind Dir Waves Ship Positions

Opal Express

Last reported at 2018-Apr-03 10:44 UTC. Time now 2018-Apr-24 16:40 UTC.
Position N 33°20' E 135°32'.
Warning: this ship's position is 21 days out of date.

Length 179 m; draft 7.8 m.

Type: Tanker. MMSI: 538002500.

Date/timePositionNaut miles runAvg speedWind from/ knotsBaromVisibWave heightAir tempDewpointWater temp
2018-Apr-03 10:44N 33°20' E 135°32'413.7
2018-Apr-03 10:25N 33°21' E 135°27'913.3
2018-Apr-03 09:46N 33°24' E 135°17'414.5
2018-Apr-03 09:28N 33°28' E 135°15'915.4
2018-Apr-03 08:54N 33°34' E 135°08'615.3
2018-Apr-03 08:30N 33°39' E 135°03'815.4
2018-Apr-03 08:00N 33°45' E 134°57'714.9
2018-Apr-03 07:30N 33°52' E 134°56'815.6
2018-Apr-03 07:01N 34°00' E 134°57'815.5
2018-Apr-03 06:30N 34°08' E 134°59'612.0
2018-Apr-03 06:00N 34°09' E 135°06'4 8.3
2018-Apr-03 05:30N 34°09' E 135°11'0 0.1
2018-Apr-03 01:48N 34°09' E 135°12'0 0.0
2018-Apr-03 00:36N 34°09' E 135°12'0 0.0
2018-Apr-03 00:18N 34°09' E 135°12'0 0.0
2018-Apr-03 00:00N 34°09' E 135°12'0 0.0
2018-Apr-02 22:30N 34°09' E 135°12'0 0.0
2018-Apr-02 22:00N 34°09' E 135°12'0 0.0
2018-Apr-02 21:06N 34°09' E 135°12'0 0.0
2018-Apr-02 19:12N 34°09' E 135°12'0 0.0
2018-Apr-02 18:54N 34°09' E 135°12'0 0.0
2018-Apr-02 18:30N 34°09' E 135°12'0 0.0
2018-Apr-02 18:00N 34°09' E 135°12'0 0.0
2018-Apr-02 17:24N 34°09' E 135°12'0 0.0
2018-Apr-02 17:00N 34°09' E 135°12'0 0.0
2018-Apr-02 14:24N 34°09' E 135°12'0 0.0
2018-Apr-02 14:00N 34°09' E 135°12'0 0.0
2018-Apr-02 11:24N 34°09' E 135°12'0 0.0
2018-Apr-02 08:42N 34°09' E 135°12'0 0.0
2018-Apr-02 08:30N 34°09' E 135°12'0 0.0
2018-Apr-02 07:54N 34°09' E 135°12'0 0.0
2018-Apr-02 05:00N 34°09' E 135°12'0 0.0
2018-Apr-02 04:06N 34°09' E 135°12'0 0.0
2018-Apr-02 01:38N 34°09' E 135°12'0 0.4
2018-Apr-02 01:30N 34°09' E 135°12'2 3.6
2018-Apr-02 01:00N 34°09' E 135°10'3 5.9
2018-Apr-02 00:30N 34°09' E 135°06'3 5.2
2018-Apr-02 00:00N 34°09' E 135°03'4 8.0
2018-Apr-01 23:30N 34°05' E 135°00'713.3
2018-Apr-01 23:00N 33°59' E 134°59'714.0
2018-Apr-01 22:30N 33°52' E 134°58'713.3
2018-Apr-01 21:59N 33°45' E 134°60'17813.8
2018-Apr-01 09:04N 34°20' E 138°31'214.4
2018-Apr-01 08:57N 34°20' E 138°32'914.1
2018-Apr-01 08:19N 34°24' E 138°42'413.5
2018-Apr-01 07:59N 34°26' E 138°47'713.2
2018-Apr-01 07:29N 34°29' E 138°54'713.7
2018-Apr-01 07:00N 34°33' E 139°00'713.2
2018-Apr-01 06:30N 34°38' E 139°06'814.8
2018-Apr-01 05:58N 34°45' E 139°10'1113.3
2018-Apr-01 05:08N 34°52' E 139°20'211.4
2018-Apr-01 04:58N 34°54' E 139°22'611.2
2018-Apr-01 04:24N 34°57' E 139°29'512.2
2018-Apr-01 03:57N 34°60' E 139°34'613.1
2018-Apr-01 03:30N 35°04' E 139°39'612.7
2018-Apr-01 03:00N 35°09' E 139°44'4 8.9
2018-Apr-01 02:30N 35°13' E 139°46'612.0
2018-Apr-01 02:01N 35°18' E 139°44'611.9
2018-Apr-01 01:31N 35°24' E 139°43'613.0
2018-Apr-01 01:01N 35°28' E 139°49'713.3
2018-Apr-01 00:31N 35°32' E 139°56'611.9
2018-Apr-01 00:00N 35°35' E 140°03'2 3.5
2018-Mar-31 23:28N 35°36' E 140°05'0 0.0
2018-Mar-31 22:52N 35°36' E 140°05'0 0.0
2018-Mar-31 22:31N 35°36' E 140°05'0 0.0
2018-Mar-31 21:58N 35°36' E 140°05'0 0.0
2018-Mar-31 21:28N 35°36' E 140°05'0 0.0
2018-Mar-31 20:58N 35°36' E 140°05'0 0.0
2018-Mar-31 20:28N 35°36' E 140°05'0 0.0
2018-Mar-31 19:58N 35°36' E 140°05'0 0.0
2018-Mar-31 19:28N 35°36' E 140°05'0 0.0
2018-Mar-31 18:58N 35°36' E 140°05'0 0.0
2018-Mar-31 18:28N 35°36' E 140°05'0 0.0
2018-Mar-31 17:58N 35°36' E 140°05'0 0.0
2018-Mar-31 17:28N 35°36' E 140°05'0 0.0
2018-Mar-31 16:58N 35°36' E 140°05'0 0.0
2018-Mar-31 16:28N 35°36' E 140°05'0 0.0
2018-Mar-31 15:58N 35°36' E 140°05'0 0.0
2018-Mar-31 15:28N 35°36' E 140°05'0 0.0
2018-Mar-31 14:58N 35°36' E 140°05'0 0.0
2018-Mar-31 14:28N 35°36' E 140°05'0 0.0
2018-Mar-31 13:58N 35°36' E 140°05'0 0.0
2018-Mar-31 13:28N 35°36' E 140°05'0 0.0
2018-Mar-31 12:58N 35°36' E 140°05'0 0.0
2018-Mar-31 12:28N 35°36' E 140°05'0 0.0
2018-Mar-31 11:58N 35°36' E 140°05'0 0.0
2018-Mar-31 11:28N 35°36' E 140°05'0 0.0
2018-Mar-31 10:58N 35°36' E 140°05'0 0.0
2018-Mar-31 10:28N 35°36' E 140°05'0 0.0
2018-Mar-31 09:58N 35°36' E 140°05'0 0.0
2018-Mar-31 09:28N 35°36' E 140°05'0 0.0
2018-Mar-31 08:58N 35°36' E 140°05'0 0.0
2018-Mar-31 08:28N 35°36' E 140°05'0 0.0
2018-Mar-31 07:58N 35°36' E 140°05'0 0.0
2018-Mar-31 07:28N 35°36' E 140°05'0 0.0
2018-Mar-31 06:58N 35°36' E 140°05'0 0.0
2018-Mar-31 06:28N 35°36' E 140°05'0 0.0
2018-Mar-31 05:58N 35°36' E 140°05'0 0.0
2018-Mar-31 05:28N 35°36' E 140°05'0 0.0
2018-Mar-31 04:58N 35°36' E 140°05'0 0.0
2018-Mar-31 04:28N 35°36' E 140°05'0 0.0
2018-Mar-31 04:01N 35°36' E 140°05'0 0.0
2018-Mar-31 03:28N 35°36' E 140°05'0 0.0
2018-Mar-31 02:58N 35°36' E 140°05'0 0.0
2018-Mar-31 02:28N 35°36' E 140°05'0 0.0
2018-Mar-31 01:58N 35°36' E 140°05'0 0.0
2018-Mar-31 01:30N 35°36' E 140°05'0 0.3
2018-Mar-31 01:00N 35°36' E 140°05'2 4.1
2018-Mar-31 00:30N 35°35' E 140°02'4 7.1
2018-Mar-31 00:00N 35°33' E 139°58'0 0.6
2018-Mar-30 23:30N 35°33' E 139°58'0 0.0
2018-Mar-30 22:57N 35°33' E 139°58'0 0.0
2018-Mar-30 22:30N 35°33' E 139°58'0 0.0
2018-Mar-30 22:00N 35°33' E 139°58'0 0.0
2018-Mar-30 21:30N 35°33' E 139°58'0 0.0
2018-Mar-30 21:00N 35°33' E 139°58'0 0.0
2018-Mar-30 20:30N 35°33' E 139°58'0 0.1
2018-Mar-30 20:00N 35°33' E 139°58'0 0.0
2018-Mar-30 19:30N 35°33' E 139°58'0 0.1
2018-Mar-30 19:00N 35°33' E 139°58'0 0.0
2018-Mar-30 18:30N 35°33' E 139°58'0 0.0
2018-Mar-30 18:00N 35°33' E 139°58'0 0.2
2018-Mar-30 17:30N 35°33' E 139°58'0 0.1
2018-Mar-30 16:54N 35°33' E 139°58'0 0.1
2018-Mar-30 16:30N 35°33' E 139°58'0 0.1
2018-Mar-30 16:00N 35°33' E 139°58'0 0.1
2018-Mar-30 15:30N 35°33' E 139°58'0 0.1
2018-Mar-30 15:00N 35°33' E 139°58'0 0.0
2018-Mar-30 14:30N 35°33' E 139°58'0 0.0
2018-Mar-30 14:00N 35°33' E 139°58'0 0.1
2018-Mar-30 13:30N 35°33' E 139°58'0 0.0
2018-Mar-30 13:00N 35°33' E 139°58'0 0.0
2018-Mar-30 12:30N 35°33' E 139°58'0 0.0
2018-Mar-30 12:00N 35°33' E 139°58'0 0.0
2018-Mar-30 11:30N 35°33' E 139°58'0 0.0
2018-Mar-30 11:00N 35°33' E 139°58'0 0.0
2018-Mar-30 10:30N 35°33' E 139°58'0 0.1
2018-Mar-30 10:00N 35°33' E 139°58'0 0.0
2018-Mar-30 09:30N 35°33' E 139°58'0 0.0
2018-Mar-30 09:00N 35°33' E 139°58'0 0.0
2018-Mar-30 08:30N 35°33' E 139°58'0 0.1
2018-Mar-30 08:00N 35°33' E 139°58'0 0.1
2018-Mar-30 07:30N 35°33' E 139°58'0 0.1
2018-Mar-30 07:00N 35°33' E 139°58'0 0.1
2018-Mar-30 06:30N 35°33' E 139°58'0 0.1
2018-Mar-30 06:00N 35°33' E 139°58'0 0.0
2018-Mar-30 05:30N 35°33' E 139°58'0 0.0
2018-Mar-30 05:00N 35°33' E 139°58'0 0.1
2018-Mar-30 04:30N 35°33' E 139°58'0 0.1
2018-Mar-30 04:00N 35°33' E 139°58'0 0.1
2018-Mar-30 03:30N 35°33' E 139°58'0 0.0
2018-Mar-30 03:00N 35°33' E 139°58'0 0.0
2018-Mar-30 02:30N 35°33' E 139°58'0 0.1
2018-Mar-30 02:00N 35°33' E 139°58'0 0.1
2018-Mar-30 01:30N 35°33' E 139°58'0 0.0
2018-Mar-30 01:00N 35°33' E 139°58'0 0.0
2018-Mar-30 00:30N 35°33' E 139°58'0 0.0
2018-Mar-30 00:00N 35°33' E 139°58'0 0.0
2018-Mar-29 23:30N 35°33' E 139°58'0 0.0
2018-Mar-29 23:00N 35°33' E 139°58'0 0.0
2018-Mar-29 22:30N 35°33' E 139°58'0 0.0
2018-Mar-29 22:00N 35°33' E 139°58'0 0.0
2018-Mar-29 21:30N 35°33' E 139°58'0 0.0
2018-Mar-29 21:00N 35°33' E 139°58'0 0.1
2018-Mar-29 20:30N 35°33' E 139°58'0 0.0
2018-Mar-29 20:00N 35°33' E 139°58'0 0.1
2018-Mar-29 19:12N 35°33' E 139°58'0 0.0
2018-Mar-29 19:00N 35°33' E 139°58'0 0.0
2018-Mar-29 18:30N 35°33' E 139°58'0 0.1
2018-Mar-29 18:00N 35°33' E 139°58'0 0.0
2018-Mar-29 17:30N 35°33' E 139°58'0 0.0
2018-Mar-29 17:00N 35°33' E 139°58'0 0.0
2018-Mar-29 16:24N 35°33' E 139°58'0 0.0
2018-Mar-29 16:00N 35°33' E 139°58'0 0.0
2018-Mar-29 15:30N 35°33' E 139°58'0 0.1
2018-Mar-29 15:00N 35°33' E 139°58'0 0.1
2018-Mar-29 14:30N 35°33' E 139°58'0 0.0
2018-Mar-29 13:54N 35°33' E 139°58'0 0.0
2018-Mar-29 13:30N 35°33' E 139°58'0 0.0
2018-Mar-29 13:00N 35°33' E 139°58'0 0.0
2018-Mar-29 12:30N 35°33' E 139°58'0 0.0
2018-Mar-29 12:00N 35°33' E 139°58'0 0.0
2018-Mar-29 11:30N 35°33' E 139°58'0 0.1
2018-Mar-29 11:00N 35°33' E 139°58'0 0.0
2018-Mar-29 10:30N 35°33' E 139°58'0 0.0
2018-Mar-29 10:00N 35°33' E 139°58'0 0.1
2018-Mar-29 09:30N 35°33' E 139°58'0 0.0
2018-Mar-29 09:00N 35°33' E 139°58'0 0.0
2018-Mar-29 08:30N 35°33' E 139°58'0 0.0
2018-Mar-29 08:00N 35°33' E 139°58'0 0.0
2018-Mar-29 07:30N 35°33' E 139°58'0 0.0
2018-Mar-29 07:00N 35°33' E 139°58'0 0.0
2018-Mar-29 06:30N 35°33' E 139°58'0 0.0
2018-Mar-29 06:00N 35°33' E 139°58'0 0.0
2018-Mar-29 05:30N 35°33' E 139°58'0 0.0
2018-Mar-29 05:00N 35°33' E 139°58'0 0.0
2018-Mar-29 04:27N 35°33' E 139°58'0 0.0
2018-Mar-29 04:00N 35°33' E 139°58'0 0.1
2018-Mar-29 03:30N 35°33' E 139°58'0 0.2
2018-Mar-29 03:00N 35°33' E 139°58'0 0.1
2018-Mar-29 02:30N 35°33' E 139°58'2 4.4
2018-Mar-29 02:01N 35°32' E 139°56'612.0
2018-Mar-29 01:31N 35°28' E 139°51'612.8
2018-Mar-29 01:00N 35°23' E 139°46'612.0
2018-Mar-29 00:30N 35°17' E 139°45'611.7
2018-Mar-29 00:00N 35°11' E 139°47'4 8.5
2018-Mar-28 23:30N 35°07' E 139°45'510.7
2018-Mar-28 23:00N 35°02' E 139°43'713.4
2018-Mar-28 22:30N 34°56' E 139°40'510.0
2018-Mar-28 21:58N 34°50' E 139°42'  
Track history (hours):
 
Tides and Currents Weather Stations Pressure Air Temp Water Temp Dewpoint Dewpoint Depression Visibility Wind Speed Wind Dir Waves Ship Positions

Opal Express

Last reported at 2018-Apr-03 10:44 UTC. Time now 2018-Apr-24 16:40 UTC.
Position N 33°20' E 135°32'.
Warning: this ship's position is 21 days out of date.

Length 179 m; draft 7.8 m.

Type: Tanker. MMSI: 538002500.

Date/timePositionNaut miles runAvg speedWind from/ knotsBaromVisibWave heightAir tempDewpointWater temp
2018-Apr-03 10:44N 33°20' E 135°32'413.7
2018-Apr-03 10:25N 33°21' E 135°27'913.3
2018-Apr-03 09:46N 33°24' E 135°17'414.5
2018-Apr-03 09:28N 33°28' E 135°15'915.4
2018-Apr-03 08:54N 33°34' E 135°08'615.3
2018-Apr-03 08:30N 33°39' E 135°03'815.4
2018-Apr-03 08:00N 33°45' E 134°57'714.9
2018-Apr-03 07:30N 33°52' E 134°56'815.6
2018-Apr-03 07:01N 34°00' E 134°57'815.5
2018-Apr-03 06:30N 34°08' E 134°59'612.0
2018-Apr-03 06:00N 34°09' E 135°06'4 8.3
2018-Apr-03 05:30N 34°09' E 135°11'0 0.1
2018-Apr-03 01:48N 34°09' E 135°12'0 0.0
2018-Apr-03 00:36N 34°09' E 135°12'0 0.0
2018-Apr-03 00:18N 34°09' E 135°12'0 0.0
2018-Apr-03 00:00N 34°09' E 135°12'0 0.0
2018-Apr-02 22:30N 34°09' E 135°12'0 0.0
2018-Apr-02 22:00N 34°09' E 135°12'0 0.0
2018-Apr-02 21:06N 34°09' E 135°12'0 0.0
2018-Apr-02 19:12N 34°09' E 135°12'0 0.0
2018-Apr-02 18:54N 34°09' E 135°12'0 0.0
2018-Apr-02 18:30N 34°09' E 135°12'0 0.0
2018-Apr-02 18:00N 34°09' E 135°12'0 0.0
2018-Apr-02 17:24N 34°09' E 135°12'0 0.0
2018-Apr-02 17:00N 34°09' E 135°12'0 0.0
2018-Apr-02 14:24N 34°09' E 135°12'0 0.0
2018-Apr-02 14:00N 34°09' E 135°12'0 0.0
2018-Apr-02 11:24N 34°09' E 135°12'0 0.0
2018-Apr-02 08:42N 34°09' E 135°12'0 0.0
2018-Apr-02 08:30N 34°09' E 135°12'0 0.0
2018-Apr-02 07:54N 34°09' E 135°12'0 0.0
2018-Apr-02 05:00N 34°09' E 135°12'0 0.0
2018-Apr-02 04:06N 34°09' E 135°12'0 0.0
2018-Apr-02 01:38N 34°09' E 135°12'0 0.4
2018-Apr-02 01:30N 34°09' E 135°12'2 3.6
2018-Apr-02 01:00N 34°09' E 135°10'3 5.9
2018-Apr-02 00:30N 34°09' E 135°06'3 5.2
2018-Apr-02 00:00N 34°09' E 135°03'4 8.0
2018-Apr-01 23:30N 34°05' E 135°00'713.3
2018-Apr-01 23:00N 33°59' E 134°59'714.0
2018-Apr-01 22:30N 33°52' E 134°58'713.3
2018-Apr-01 21:59N 33°45' E 134°60'17813.8
2018-Apr-01 09:04N 34°20' E 138°31'214.4
2018-Apr-01 08:57N 34°20' E 138°32'914.1
2018-Apr-01 08:19N 34°24' E 138°42'413.5
2018-Apr-01 07:59N 34°26' E 138°47'713.2
2018-Apr-01 07:29N 34°29' E 138°54'713.7
2018-Apr-01 07:00N 34°33' E 139°00'713.2
2018-Apr-01 06:30N 34°38' E 139°06'814.8
2018-Apr-01 05:58N 34°45' E 139°10'1113.3
2018-Apr-01 05:08N 34°52' E 139°20'211.4
2018-Apr-01 04:58N 34°54' E 139°22'611.2
2018-Apr-01 04:24N 34°57' E 139°29'512.2
2018-Apr-01 03:57N 34°60' E 139°34'613.1
2018-Apr-01 03:30N 35°04' E 139°39'612.7
2018-Apr-01 03:00N 35°09' E 139°44'4 8.9
2018-Apr-01 02:30N 35°13' E 139°46'612.0
2018-Apr-01 02:01N 35°18' E 139°44'611.9
2018-Apr-01 01:31N 35°24' E 139°43'613.0
2018-Apr-01 01:01N 35°28' E 139°49'713.3
2018-Apr-01 00:31N 35°32' E 139°56'611.9
2018-Apr-01 00:00N 35°35' E 140°03'2 3.5
2018-Mar-31 23:28N 35°36' E 140°05'0 0.0
2018-Mar-31 22:52N 35°36' E 140°05'0 0.0
2018-Mar-31 22:31N 35°36' E 140°05'0 0.0
2018-Mar-31 21:58N 35°36' E 140°05'0 0.0
2018-Mar-31 21:28N 35°36' E 140°05'0 0.0
2018-Mar-31 20:58N 35°36' E 140°05'0 0.0
2018-Mar-31 20:28N 35°36' E 140°05'0 0.0
2018-Mar-31 19:58N 35°36' E 140°05'0 0.0
2018-Mar-31 19:28N 35°36' E 140°05'0 0.0
2018-Mar-31 18:58N 35°36' E 140°05'0 0.0
2018-Mar-31 18:28N 35°36' E 140°05'0 0.0
2018-Mar-31 17:58N 35°36' E 140°05'0 0.0
2018-Mar-31 17:28N 35°36' E 140°05'0 0.0
2018-Mar-31 16:58N 35°36' E 140°05'0 0.0
2018-Mar-31 16:28N 35°36' E 140°05'0 0.0
2018-Mar-31 15:58N 35°36' E 140°05'0 0.0
2018-Mar-31 15:28N 35°36' E 140°05'0 0.0
2018-Mar-31 14:58N 35°36' E 140°05'0 0.0
2018-Mar-31 14:28N 35°36' E 140°05'0 0.0
2018-Mar-31 13:58N 35°36' E 140°05'0 0.0
2018-Mar-31 13:28N 35°36' E 140°05'0 0.0
2018-Mar-31 12:58N 35°36' E 140°05'0 0.0
2018-Mar-31 12:28N 35°36' E 140°05'0 0.0
2018-Mar-31 11:58N 35°36' E 140°05'0 0.0
2018-Mar-31 11:28N 35°36' E 140°05'0 0.0
2018-Mar-31 10:58N 35°36' E 140°05'0 0.0
2018-Mar-31 10:28N 35°36' E 140°05'0 0.0
2018-Mar-31 09:58N 35°36' E 140°05'0 0.0
2018-Mar-31 09:28N 35°36' E 140°05'0 0.0
2018-Mar-31 08:58N 35°36' E 140°05'0 0.0
2018-Mar-31 08:28N 35°36' E 140°05'0 0.0
2018-Mar-31 07:58N 35°36' E 140°05'0 0.0
2018-Mar-31 07:28N 35°36' E 140°05'0 0.0
2018-Mar-31 06:58N 35°36' E 140°05'0 0.0
2018-Mar-31 06:28N 35°36' E 140°05'0 0.0
2018-Mar-31 05:58N 35°36' E 140°05'0 0.0
2018-Mar-31 05:28N 35°36' E 140°05'0 0.0
2018-Mar-31 04:58N 35°36' E 140°05'0 0.0
2018-Mar-31 04:28N 35°36' E 140°05'0 0.0
2018-Mar-31 04:01N 35°36' E 140°05'0 0.0
2018-Mar-31 03:28N 35°36' E 140°05'0 0.0
2018-Mar-31 02:58N 35°36' E 140°05'0 0.0
2018-Mar-31 02:28N 35°36' E 140°05'0 0.0
2018-Mar-31 01:58N 35°36' E 140°05'0 0.0
2018-Mar-31 01:30N 35°36' E 140°05'0 0.3
2018-Mar-31 01:00N 35°36' E 140°05'2 4.1
2018-Mar-31 00:30N 35°35' E 140°02'4 7.1
2018-Mar-31 00:00N 35°33' E 139°58'0 0.6
2018-Mar-30 23:30N 35°33' E 139°58'0 0.0
2018-Mar-30 22:57N 35°33' E 139°58'0 0.0
2018-Mar-30 22:30N 35°33' E 139°58'0 0.0
2018-Mar-30 22:00N 35°33' E 139°58'0 0.0
2018-Mar-30 21:30N 35°33' E 139°58'0 0.0
2018-Mar-30 21:00N 35°33' E 139°58'0 0.0
2018-Mar-30 20:30N 35°33' E 139°58'0 0.1
2018-Mar-30 20:00N 35°33' E 139°58'0 0.0
2018-Mar-30 19:30N 35°33' E 139°58'0 0.1
2018-Mar-30 19:00N 35°33' E 139°58'0 0.0
2018-Mar-30 18:30N 35°33' E 139°58'0 0.0
2018-Mar-30 18:00N 35°33' E 139°58'0 0.2
2018-Mar-30 17:30N 35°33' E 139°58'0 0.1
2018-Mar-30 16:54N 35°33' E 139°58'0 0.1
2018-Mar-30 16:30N 35°33' E 139°58'0 0.1
2018-Mar-30 16:00N 35°33' E 139°58'0 0.1
2018-Mar-30 15:30N 35°33' E 139°58'0 0.1
2018-Mar-30 15:00N 35°33' E 139°58'0 0.0
2018-Mar-30 14:30N 35°33' E 139°58'0 0.0
2018-Mar-30 14:00N 35°33' E 139°58'0 0.1
2018-Mar-30 13:30N 35°33' E 139°58'0 0.0
2018-Mar-30 13:00N 35°33' E 139°58'0 0.0
2018-Mar-30 12:30N 35°33' E 139°58'0 0.0
2018-Mar-30 12:00N 35°33' E 139°58'0 0.0
2018-Mar-30 11:30N 35°33' E 139°58'0 0.0
2018-Mar-30 11:00N 35°33' E 139°58'0 0.0
2018-Mar-30 10:30N 35°33' E 139°58'0 0.1
2018-Mar-30 10:00N 35°33' E 139°58'0 0.0
2018-Mar-30 09:30N 35°33' E 139°58'0 0.0
2018-Mar-30 09:00N 35°33' E 139°58'0 0.0
2018-Mar-30 08:30N 35°33' E 139°58'0 0.1
2018-Mar-30 08:00N 35°33' E 139°58'0 0.1
2018-Mar-30 07:30N 35°33' E 139°58'0 0.1
2018-Mar-30 07:00N 35°33' E 139°58'0 0.1
2018-Mar-30 06:30N 35°33' E 139°58'0 0.1
2018-Mar-30 06:00N 35°33' E 139°58'0 0.0
2018-Mar-30 05:30N 35°33' E 139°58'0 0.0
2018-Mar-30 05:00N 35°33' E 139°58'0 0.1
2018-Mar-30 04:30N 35°33' E 139°58'0 0.1
2018-Mar-30 04:00N 35°33' E 139°58'0 0.1
2018-Mar-30 03:30N 35°33' E 139°58'0 0.0
2018-Mar-30 03:00N 35°33' E 139°58'0 0.0
2018-Mar-30 02:30N 35°33' E 139°58'0 0.1
2018-Mar-30 02:00N 35°33' E 139°58'0 0.1
2018-Mar-30 01:30N 35°33' E 139°58'0 0.0
2018-Mar-30 01:00N 35°33' E 139°58'0 0.0
2018-Mar-30 00:30N 35°33' E 139°58'0 0.0
2018-Mar-30 00:00N 35°33' E 139°58'0 0.0
2018-Mar-29 23:30N 35°33' E 139°58'0 0.0
2018-Mar-29 23:00N 35°33' E 139°58'0 0.0
2018-Mar-29 22:30N 35°33' E 139°58'0 0.0
2018-Mar-29 22:00N 35°33' E 139°58'0 0.0
2018-Mar-29 21:30N 35°33' E 139°58'0 0.0
2018-Mar-29 21:00N 35°33' E 139°58'0 0.1
2018-Mar-29 20:30N 35°33' E 139°58'0 0.0
2018-Mar-29 20:00N 35°33' E 139°58'0 0.1
2018-Mar-29 19:12N 35°33' E 139°58'0 0.0
2018-Mar-29 19:00N 35°33' E 139°58'0 0.0
2018-Mar-29 18:30N 35°33' E 139°58'0 0.1
2018-Mar-29 18:00N 35°33' E 139°58'0 0.0
2018-Mar-29 17:30N 35°33' E 139°58'0 0.0
2018-Mar-29 17:00N 35°33' E 139°58'0 0.0
2018-Mar-29 16:24N 35°33' E 139°58'0 0.0
2018-Mar-29 16:00N 35°33' E 139°58'0 0.0
2018-Mar-29 15:30N 35°33' E 139°58'0 0.1
2018-Mar-29 15:00N 35°33' E 139°58'0 0.1
2018-Mar-29 14:30N 35°33' E 139°58'0 0.0
2018-Mar-29 13:54N 35°33' E 139°58'0 0.0
2018-Mar-29 13:30N 35°33' E 139°58'0 0.0
2018-Mar-29 13:00N 35°33' E 139°58'0 0.0
2018-Mar-29 12:30N 35°33' E 139°58'0 0.0
2018-Mar-29 12:00N 35°33' E 139°58'0 0.0
2018-Mar-29 11:30N 35°33' E 139°58'0 0.1
2018-Mar-29 11:00N 35°33' E 139°58'0 0.0
2018-Mar-29 10:30N 35°33' E 139°58'0 0.0
2018-Mar-29 10:00N 35°33' E 139°58'0 0.1
2018-Mar-29 09:30N 35°33' E 139°58'0 0.0
2018-Mar-29 09:00N 35°33' E 139°58'0 0.0
2018-Mar-29 08:30N 35°33' E 139°58'0 0.0
2018-Mar-29 08:00N 35°33' E 139°58'0 0.0
2018-Mar-29 07:30N 35°33' E 139°58'0 0.0
2018-Mar-29 07:00N 35°33' E 139°58'0 0.0
2018-Mar-29 06:30N 35°33' E 139°58'0 0.0
2018-Mar-29 06:00N 35°33' E 139°58'0 0.0
2018-Mar-29 05:30N 35°33' E 139°58'0 0.0
2018-Mar-29 05:00N 35°33' E 139°58'0 0.0
2018-Mar-29 04:27N 35°33' E 139°58'0 0.0
2018-Mar-29 04:00N 35°33' E 139°58'0 0.1
2018-Mar-29 03:30N 35°33' E 139°58'0 0.2
2018-Mar-29 03:00N 35°33' E 139°58'0 0.1
2018-Mar-29 02:30N 35°33' E 139°58'2 4.4
2018-Mar-29 02:01N 35°32' E 139°56'612.0
2018-Mar-29 01:31N 35°28' E 139°51'612.8
2018-Mar-29 01:00N 35°23' E 139°46'612.0
2018-Mar-29 00:30N 35°17' E 139°45'611.7
2018-Mar-29 00:00N 35°11' E 139°47'4 8.5
2018-Mar-28 23:30N 35°07' E 139°45'510.7
2018-Mar-28 23:00N 35°02' E 139°43'713.4
2018-Mar-28 22:30N 34°56' E 139°40'510.0
2018-Mar-28 21:58N 34°50' E 139°42'  

Dump ship's entire track history